createdAt,value
2017-08-19T00:01:03.671Z,7.32
2017-08-19T00:03:31.533Z,7.50
2017-08-19T00:05:59.295Z,6.62
2017-08-19T00:08:27.159Z,6.72
2017-08-19T00:10:54.882Z,4.93
2017-08-19T00:13:22.603Z,5.60
2017-08-19T00:15:51.262Z,3.87
2017-08-19T00:18:19.023Z,4.55
2017-08-19T00:20:46.886Z,2.70
2017-08-19T00:23:14.629Z,2.55
2017-08-19T00:25:42.413Z,3.33
2017-08-19T00:28:10.170Z,3.50
2017-08-19T00:30:37.895Z,3.30
2017-08-19T00:33:05.774Z,3.20
2017-08-19T00:35:33.491Z,3.28
2017-08-19T00:38:02.001Z,3.30
2017-08-19T00:40:29.778Z,2.83
2017-08-19T00:42:57.561Z,2.90
2017-08-19T00:45:25.424Z,2.70
2017-08-19T00:47:53.289Z,3.20
2017-08-19T00:50:21.049Z,2.58
2017-08-19T00:52:48.838Z,4.20
2017-08-19T00:55:17.392Z,2.47
2017-08-19T00:57:45.256Z,2.90
2017-08-19T01:00:13.007Z,2.75
2017-08-19T01:02:40.738Z,3.92
2017-08-19T01:05:08.498Z,2.80
2017-08-19T01:07:36.250Z,3.00
2017-08-19T01:10:04.166Z,3.45
2017-08-19T01:12:32.029Z,2.75
2017-08-19T01:14:59.791Z,3.67
2017-08-19T01:17:27.552Z,3.00
2017-08-19T01:19:55.418Z,3.28
2017-08-19T01:22:23.285Z,2.45
2017-08-19T01:24:51.145Z,2.60
2017-08-19T01:27:19.007Z,3.00
2017-08-19T01:29:46.760Z,2.42
2017-08-19T01:32:14.489Z,2.67
2017-08-19T01:34:42.286Z,2.62
2017-08-19T01:37:10.019Z,2.90
2017-08-19T01:39:37.815Z,2.30
2017-08-19T01:42:05.680Z,2.35
2017-08-19T01:44:33.407Z,2.60
2017-08-19T01:47:01.303Z,3.40
2017-08-19T01:49:29.026Z,3.05
2017-08-19T01:51:56.826Z,2.80
2017-08-19T01:54:24.693Z,3.95
2017-08-19T01:56:52.557Z,3.53
2017-08-19T01:59:20.378Z,3.97
2017-08-19T02:01:48.102Z,3.35
2017-08-19T02:04:16.659Z,2.72
2017-08-19T02:06:44.522Z,2.67
2017-08-19T02:09:12.387Z,3.37
2017-08-19T02:11:40.340Z,2.92
2017-08-19T02:14:08.054Z,3.10
2017-08-19T02:16:36.593Z,2.40
2017-08-19T02:19:04.353Z,2.92
2017-08-19T02:21:32.220Z,3.40
2017-08-19T02:24:00.081Z,2.85
2017-08-19T02:26:27.944Z,2.75
2017-08-19T02:28:55.807Z,3.42
2017-08-19T02:31:23.553Z,3.75
2017-08-19T02:33:51.270Z,3.65
2017-08-19T02:36:19.196Z,2.72
2017-08-19T02:38:47.059Z,2.83
2017-08-19T02:41:14.925Z,2.92
2017-08-19T02:43:42.787Z,3.37
2017-08-19T02:46:10.549Z,3.35
2017-08-19T02:48:38.334Z,4.15
2017-08-19T02:51:06.072Z,3.42
2017-08-19T02:53:33.938Z,4.12
2017-08-19T02:56:01.800Z,4.35
2017-08-19T02:58:29.663Z,3.92
2017-08-19T03:00:57.527Z,3.83
2017-08-19T03:03:25.392Z,3.70
2017-08-19T03:05:53.254Z,4.10
2017-08-19T03:08:21.120Z,4.25
2017-08-19T03:10:48.985Z,4.12
2017-08-19T03:13:16.759Z,4.05
2017-08-19T03:15:44.478Z,4.70
2017-08-19T03:18:12.196Z,4.55
2017-08-19T03:20:40.852Z,3.87
2017-08-19T03:23:08.713Z,3.90
2017-08-19T03:25:36.576Z,3.90
2017-08-19T03:28:04.441Z,4.30
2017-08-19T03:30:32.305Z,4.80
2017-08-19T03:33:00.167Z,4.22
2017-08-19T03:35:27.993Z,4.37
2017-08-19T03:37:55.896Z,5.75
2017-08-19T03:40:23.758Z,4.57
2017-08-19T03:42:51.622Z,4.40
2017-08-19T03:45:19.487Z,5.20
2017-08-19T03:47:47.350Z,5.15
2017-08-19T03:50:15.214Z,4.50
2017-08-19T03:52:43.078Z,4.07
2017-08-19T03:55:10.941Z,3.72
2017-08-19T03:57:38.809Z,3.92
2017-08-19T04:00:06.682Z,3.62
2017-08-19T04:02:34.532Z,3.20
2017-08-19T04:05:02.399Z,3.33
2017-08-19T04:07:30.264Z,3.10
2017-08-19T04:09:58.124Z,3.05
2017-08-19T04:12:25.958Z,2.78
2017-08-19T04:14:53.855Z,2.80
2017-08-19T04:17:21.718Z,2.70
2017-08-19T04:19:49.443Z,2.53
2017-08-19T04:22:17.186Z,1.90
2017-08-19T04:24:45.002Z,2.53
2017-08-19T04:27:12.775Z,2.95
2017-08-19T04:29:40.523Z,1.85
2017-08-19T04:32:08.264Z,2.50
2017-08-19T04:34:36.012Z,2.42
2017-08-19T04:37:03.735Z,3.42
2017-08-19T04:39:32.390Z,2.53
2017-08-19T04:42:00.139Z,2.60
2017-08-19T04:44:27.914Z,2.45
2017-08-19T04:46:55.776Z,2.25
2017-08-19T04:49:23.641Z,1.90
2017-08-19T04:51:51.421Z,2.50
2017-08-19T04:54:19.264Z,2.45
2017-08-19T04:56:47.132Z,2.40
2017-08-19T04:59:14.993Z,2.15
2017-08-19T05:01:42.724Z,2.47
2017-08-19T05:04:10.516Z,2.50
2017-08-19T05:06:38.381Z,2.20
2017-08-19T05:09:06.244Z,1.90
2017-08-19T05:11:34.107Z,2.20
2017-08-19T05:14:01.933Z,2.25
2017-08-19T05:16:29.835Z,2.85
2017-08-19T05:18:57.601Z,2.08
2017-08-19T05:21:25.460Z,2.55
2017-08-19T05:23:53.332Z,2.53
2017-08-19T05:26:21.189Z,3.70
2017-08-19T05:28:49.054Z,3.28
2017-08-19T05:31:16.925Z,3.55
2017-08-19T05:33:44.648Z,3.33
2017-08-19T05:36:12.397Z,2.80
2017-08-19T05:38:40.119Z,2.70
2017-08-19T05:41:07.904Z,2.47
2017-08-19T05:43:35.723Z,3.60
2017-08-19T05:46:03.588Z,3.22
2017-08-19T05:48:31.450Z,3.28
2017-08-19T05:50:59.315Z,3.87
2017-08-19T05:53:27.179Z,3.28
2017-08-19T05:55:55.042Z,3.42
2017-08-19T05:58:22.767Z,3.50
2017-08-19T06:00:50.517Z,3.70
2017-08-19T06:03:18.237Z,3.47
2017-08-19T06:05:46.397Z,3.53
2017-08-19T06:08:14.259Z,3.40
2017-08-19T06:10:42.124Z,2.62
2017-08-19T06:13:09.987Z,3.83
2017-08-19T06:15:37.852Z,2.70
2017-08-19T06:18:05.721Z,2.72
2017-08-19T06:20:33.581Z,2.95
2017-08-19T06:23:01.443Z,2.28
2017-08-19T06:25:29.309Z,1.83
2017-08-19T06:27:57.170Z,2.30
2017-08-19T06:30:24.947Z,2.05
2017-08-19T06:32:52.794Z,2.45
2017-08-19T06:35:20.660Z,2.15
2017-08-19T06:37:48.420Z,3.08
2017-08-19T06:40:16.285Z,2.00
2017-08-19T06:42:44.148Z,2.40
2017-08-19T06:45:12.012Z,2.20
2017-08-19T06:47:39.839Z,2.90
2017-08-19T06:50:07.638Z,2.65
2017-08-19T06:52:35.503Z,2.65
2017-08-19T06:55:03.369Z,2.30
2017-08-19T06:57:31.230Z,2.72
2017-08-19T06:59:59.094Z,2.78
2017-08-19T07:02:26.958Z,3.15
2017-08-19T07:04:54.820Z,4.00
2017-08-19T07:07:22.687Z,3.10
2017-08-19T07:09:50.411Z,3.45
2017-08-19T07:12:18.131Z,2.70
2017-08-19T07:14:46.789Z,3.90
2017-08-19T07:17:14.653Z,4.37
2017-08-19T07:19:42.516Z,3.62
2017-08-19T07:22:10.342Z,4.05
2017-08-19T07:24:38.141Z,4.18
2017-08-19T07:27:06.007Z,3.35
2017-08-19T07:29:34.078Z,3.62
2017-08-19T07:32:01.899Z,4.10
2017-08-19T07:34:29.620Z,4.28
2017-08-19T07:36:57.461Z,3.35
2017-08-19T07:39:25.326Z,4.05
2017-08-19T07:41:53.189Z,3.70
2017-08-19T07:44:20.974Z,4.47
2017-08-19T07:46:49.462Z,4.80
2017-08-19T07:49:17.187Z,5.40
2017-08-19T07:51:45.362Z,5.50
2017-08-19T07:54:14.356Z,5.18
2017-08-19T07:56:42.220Z,5.57
2017-08-19T07:59:09.959Z,4.70
2017-08-19T08:01:37.841Z,5.00
2017-08-19T08:04:05.707Z,7.10
2017-08-19T08:06:33.791Z,6.10
2017-08-19T08:09:02.560Z,6.05
2017-08-19T08:11:30.424Z,5.55
2017-08-19T08:13:58.393Z,5.80
2017-08-19T08:16:26.154Z,6.30
2017-08-19T08:18:54.014Z,6.00
2017-08-19T08:21:21.843Z,6.80
2017-08-19T08:23:49.642Z,5.85
2017-08-19T08:26:17.607Z,5.90
2017-08-19T08:28:45.471Z,6.82
2017-08-19T08:31:13.337Z,5.30
2017-08-19T08:33:41.201Z,6.10
2017-08-19T08:36:09.062Z,5.75
2017-08-19T08:38:36.925Z,5.87
2017-08-19T08:41:04.789Z,5.55
2017-08-19T08:43:32.657Z,6.25
2017-08-19T08:46:00.523Z,6.05
2017-08-19T08:48:28.251Z,5.55
2017-08-19T08:50:56.041Z,7.57
2017-08-19T08:53:25.137Z,6.78
2017-08-19T08:55:52.996Z,6.45
2017-08-19T08:58:20.861Z,5.15
2017-08-19T09:00:48.621Z,6.37
2017-08-19T09:03:16.384Z,5.85
2017-08-19T09:05:44.248Z,6.20
2017-08-19T09:08:12.110Z,6.45
2017-08-19T09:10:39.976Z,6.53
2017-08-19T09:13:07.839Z,5.62
2017-08-19T09:15:35.707Z,5.05
2017-08-19T09:18:03.466Z,6.82
2017-08-19T09:20:31.327Z,5.75
2017-08-19T09:22:59.124Z,6.15
2017-08-19T09:25:27.626Z,6.70
2017-08-19T09:27:55.431Z,5.60
2017-08-19T09:30:23.303Z,5.55
2017-08-19T09:32:51.061Z,7.20
2017-08-19T09:35:18.842Z,7.05
2017-08-19T09:37:47.443Z,6.55
2017-08-19T09:40:15.262Z,6.55
2017-08-19T09:42:43.130Z,7.70
2017-08-19T09:45:10.992Z,6.85
2017-08-19T09:47:39.060Z,6.43
2017-08-19T09:50:06.821Z,8.85
2017-08-19T09:52:34.547Z,6.30
2017-08-19T09:55:02.344Z,6.72
2017-08-19T09:57:30.068Z,6.93
2017-08-19T09:59:57.968Z,7.78
2017-08-19T10:02:25.834Z,5.95
2017-08-19T10:04:53.555Z,6.10
2017-08-19T10:07:21.357Z,6.65
2017-08-19T10:09:49.089Z,6.10
2017-08-19T10:12:16.983Z,5.57
2017-08-19T10:14:44.713Z,5.18
2017-08-19T10:17:12.443Z,5.25
2017-08-19T10:19:41.088Z,5.35
2017-08-19T10:22:08.805Z,5.28
2017-08-19T10:24:36.711Z,5.32
2017-08-19T10:27:04.574Z,5.75
2017-08-19T10:29:32.336Z,5.85
2017-08-19T10:32:00.093Z,6.05
2017-08-19T10:34:27.821Z,6.20
2017-08-19T10:36:55.611Z,5.85
2017-08-19T10:39:23.380Z,6.47
2017-08-19T10:41:51.247Z,5.18
2017-08-19T10:44:18.994Z,4.53
2017-08-19T10:46:46.768Z,4.18
2017-08-19T10:49:14.634Z,4.15
2017-08-19T10:51:42.398Z,5.15
2017-08-19T10:54:10.123Z,4.55
2017-08-19T10:56:37.917Z,6.25
2017-08-19T10:59:05.655Z,4.70
2017-08-19T11:01:33.587Z,5.07
2017-08-19T11:04:01.406Z,4.57
2017-08-19T11:06:30.806Z,4.70
2017-08-19T11:08:58.555Z,3.60
2017-08-19T11:11:26.442Z,5.03
2017-08-19T11:13:54.347Z,4.90
2017-08-19T11:16:22.778Z,5.03
2017-08-19T11:18:50.641Z,3.80
2017-08-19T11:21:18.505Z,4.00
2017-08-19T11:23:46.264Z,4.30
2017-08-19T11:26:14.126Z,4.35
2017-08-19T11:28:41.989Z,4.55
2017-08-19T11:31:09.854Z,4.12
2017-08-19T11:33:37.718Z,4.40
2017-08-19T11:36:05.591Z,5.12
2017-08-19T11:38:34.061Z,5.00
2017-08-19T11:41:01.926Z,4.70
2017-08-19T11:43:29.657Z,4.50
2017-08-19T11:45:57.654Z,5.93
2017-08-19T11:48:25.516Z,5.40
2017-08-19T11:50:53.685Z,3.92
2017-08-19T11:53:22.181Z,3.97
2017-08-19T11:55:50.948Z,4.30
2017-08-19T11:58:19.033Z,3.75
2017-08-19T12:00:48.008Z,3.25
2017-08-19T12:03:15.876Z,3.95
2017-08-19T12:05:43.708Z,4.10
2017-08-19T12:08:11.605Z,4.47
2017-08-19T12:10:39.465Z,4.20
2017-08-19T12:13:07.334Z,3.58
2017-08-19T12:15:35.196Z,3.55
2017-08-19T12:18:03.053Z,4.70
2017-08-19T12:20:31.020Z,3.60
2017-08-19T12:22:59.811Z,3.30
2017-08-19T12:25:27.671Z,3.58
2017-08-19T12:27:55.535Z,4.00
2017-08-19T12:30:23.398Z,3.80
2017-08-19T12:32:51.262Z,3.75
2017-08-19T12:35:18.995Z,3.35
2017-08-19T12:37:46.889Z,4.00
2017-08-19T12:40:14.618Z,3.92
2017-08-19T12:42:42.341Z,4.10
2017-08-19T12:45:10.106Z,3.83
2017-08-19T12:47:37.940Z,3.50
2017-08-19T12:50:05.736Z,3.92
2017-08-19T12:52:33.559Z,4.03
2017-08-19T12:55:01.422Z,3.58
2017-08-19T12:57:29.289Z,3.58
2017-08-19T12:59:57.047Z,3.47
2017-08-19T13:02:24.912Z,3.08
2017-08-19T13:04:52.635Z,3.35
2017-08-19T13:07:20.434Z,3.30
2017-08-19T13:09:48.191Z,4.90
2017-08-19T13:12:15.958Z,4.57
2017-08-19T13:14:43.738Z,3.80
2017-08-19T13:17:11.461Z,4.40
2017-08-19T13:19:39.244Z,5.00
2017-08-19T13:22:07.004Z,4.37
2017-08-19T13:24:34.727Z,3.37
2017-08-19T13:27:02.836Z,3.40
2017-08-19T13:29:30.804Z,3.05
2017-08-19T13:31:59.693Z,3.05
2017-08-19T13:34:27.571Z,3.45
2017-08-19T13:36:55.422Z,3.10
2017-08-19T13:39:23.279Z,3.20
2017-08-19T13:41:51.143Z,3.35
2017-08-19T13:44:19.010Z,2.90
2017-08-19T13:46:46.870Z,2.70
2017-08-19T13:49:14.734Z,2.75
2017-08-19T13:51:42.703Z,2.95
2017-08-19T13:54:10.565Z,2.90
2017-08-19T13:56:38.430Z,3.17
2017-08-19T13:59:06.294Z,2.90
2017-08-19T14:01:34.055Z,3.47
2017-08-19T14:04:01.917Z,3.45
2017-08-19T14:06:29.645Z,2.33
2017-08-19T14:08:57.442Z,2.85
2017-08-19T14:11:26.226Z,4.07
2017-08-19T14:13:54.381Z,3.00
2017-08-19T14:16:22.267Z,2.33
2017-08-19T14:18:50.124Z,2.90
2017-08-19T14:21:17.848Z,1.67
2017-08-19T14:23:46.978Z,2.17
2017-08-19T14:26:14.750Z,2.60
2017-08-19T14:28:42.604Z,3.00
2017-08-19T14:31:10.330Z,2.12
2017-08-19T14:33:38.127Z,2.40
2017-08-19T14:36:05.992Z,2.08
2017-08-19T14:38:33.853Z,1.92
2017-08-19T14:41:01.683Z,2.05
2017-08-19T14:43:29.428Z,2.37
2017-08-19T14:45:57.241Z,1.98
2017-08-19T14:48:25.104Z,1.90
2017-08-19T14:50:52.835Z,2.50
2017-08-19T14:53:20.730Z,1.67
2017-08-19T14:55:48.595Z,2.00
2017-08-19T14:58:16.315Z,2.30
2017-08-19T15:00:44.220Z,2.00
2017-08-19T15:03:12.053Z,2.55
2017-08-19T15:05:39.841Z,2.05
2017-08-19T15:08:07.573Z,2.90
2017-08-19T15:10:35.287Z,1.50
2017-08-19T15:13:03.034Z,2.28
2017-08-19T15:15:30.891Z,1.98
2017-08-19T15:17:58.694Z,2.20
2017-08-19T15:20:27.233Z,2.35
2017-08-19T15:22:54.996Z,1.50
2017-08-19T15:25:22.755Z,1.70
2017-08-19T15:27:50.475Z,2.37
2017-08-19T15:30:18.381Z,2.30
2017-08-19T15:32:46.106Z,1.90
2017-08-19T15:35:13.826Z,2.53
2017-08-19T15:37:41.593Z,2.35
2017-08-19T15:40:10.091Z,2.05
2017-08-19T15:42:37.871Z,2.00
2017-08-19T15:45:05.595Z,2.42
2017-08-19T15:47:34.086Z,2.03
2017-08-19T15:50:02.623Z,2.47
2017-08-19T15:52:30.342Z,3.17
2017-08-19T15:54:58.125Z,3.05
2017-08-19T15:57:25.909Z,2.00
2017-08-19T15:59:53.803Z,3.17
2017-08-19T16:02:22.457Z,3.30
2017-08-19T16:04:50.181Z,2.80
2017-08-19T16:07:17.958Z,2.72
2017-08-19T16:09:45.706Z,3.25
2017-08-19T16:12:13.502Z,3.20
2017-08-19T16:14:41.250Z,2.95
2017-08-19T16:17:09.030Z,3.25
2017-08-19T16:19:36.965Z,3.35
2017-08-19T16:22:04.710Z,3.40
2017-08-19T16:24:32.516Z,2.72
2017-08-19T16:27:00.268Z,2.70
2017-08-19T16:29:27.987Z,2.42
2017-08-19T16:31:55.776Z,2.75
2017-08-19T16:34:23.502Z,3.55
2017-08-19T16:36:51.226Z,2.55
2017-08-19T16:39:18.979Z,2.40
2017-08-19T16:41:46.709Z,2.87
2017-08-19T16:44:14.501Z,2.37
2017-08-19T16:46:42.223Z,3.10
2017-08-19T16:49:10.026Z,2.87
2017-08-19T16:51:37.888Z,3.25
2017-08-19T16:54:05.759Z,2.60
2017-08-19T16:56:33.578Z,3.40
2017-08-19T16:59:01.380Z,2.40
2017-08-19T17:01:29.244Z,3.00
2017-08-19T17:03:57.105Z,2.92
2017-08-19T17:06:25.491Z,3.00
2017-08-19T17:08:53.346Z,2.67
2017-08-19T17:11:21.071Z,3.45
2017-08-19T17:13:48.954Z,3.33
2017-08-19T17:16:16.938Z,3.12
2017-08-19T17:18:44.801Z,2.97
2017-08-19T17:21:12.766Z,3.70
2017-08-19T17:23:41.656Z,3.45
2017-08-19T17:26:09.521Z,3.80
2017-08-19T17:28:37.390Z,4.30
2017-08-19T17:31:05.265Z,5.35
2017-08-19T17:33:33.929Z,4.70
2017-08-19T17:36:01.794Z,5.43
2017-08-19T17:38:29.657Z,5.40
2017-08-19T17:40:57.532Z,5.65
2017-08-19T17:43:26.102Z,6.12
2017-08-19T17:45:53.967Z,4.85
2017-08-19T17:48:21.836Z,3.97
2017-08-19T17:50:49.695Z,4.30
2017-08-19T17:53:17.524Z,4.35
2017-08-19T17:55:45.422Z,4.70
2017-08-19T17:58:13.286Z,3.83
2017-08-19T18:00:41.149Z,4.35
2017-08-19T18:03:09.013Z,3.40
2017-08-19T18:05:36.876Z,3.37
2017-08-19T18:08:05.149Z,3.20
2017-08-19T18:10:32.932Z,2.90
2017-08-19T18:13:01.596Z,3.15
2017-08-19T18:15:29.526Z,3.92
2017-08-19T18:17:57.426Z,3.35
2017-08-19T18:20:25.303Z,3.50
2017-08-19T18:22:53.152Z,2.90
2017-08-19T18:25:21.019Z,3.62
2017-08-19T18:27:48.880Z,3.35
2017-08-19T18:30:16.745Z,3.28
2017-08-19T18:32:44.610Z,2.83
2017-08-19T18:35:12.471Z,2.75
2017-08-19T18:37:40.439Z,2.80
2017-08-19T18:40:08.303Z,2.55
2017-08-19T18:42:36.167Z,2.80
2017-08-19T18:45:04.646Z,3.28
2017-08-19T18:47:32.508Z,2.30
2017-08-19T18:50:00.375Z,4.00
2017-08-19T18:52:28.098Z,3.37
2017-08-19T18:54:55.894Z,4.10
2017-08-19T18:57:24.578Z,3.50
2017-08-19T18:59:52.447Z,3.85
2017-08-19T19:02:20.307Z,3.33
2017-08-19T19:04:48.065Z,3.50
2017-08-19T19:07:15.930Z,3.30
2017-08-19T19:09:43.794Z,2.65
2017-08-19T19:12:11.658Z,3.00
2017-08-19T19:14:39.484Z,3.50
2017-08-19T19:17:07.283Z,3.08
2017-08-19T19:19:35.148Z,2.97
2017-08-19T19:22:03.010Z,3.55
2017-08-19T19:24:30.875Z,3.45
2017-08-19T19:26:58.739Z,3.22
2017-08-19T19:29:26.603Z,3.58
2017-08-19T19:31:54.467Z,3.55
2017-08-19T19:34:22.330Z,4.32
2017-08-19T19:36:50.195Z,3.25
2017-08-19T19:39:18.058Z,3.15
2017-08-19T19:41:46.844Z,3.60
2017-08-19T19:44:14.707Z,3.40
2017-08-19T19:46:42.572Z,3.35
2017-08-19T19:49:10.435Z,3.97
2017-08-19T19:51:38.302Z,2.75
2017-08-19T19:54:06.062Z,4.50
2017-08-19T19:56:33.924Z,2.97
2017-08-19T19:59:01.789Z,3.80
2017-08-19T20:01:29.577Z,2.90
2017-08-19T20:03:58.132Z,3.80
2017-08-19T20:06:25.994Z,3.80
2017-08-19T20:08:53.859Z,3.40
2017-08-19T20:11:21.723Z,3.08
2017-08-19T20:13:49.585Z,2.90
2017-08-19T20:16:17.451Z,4.43
2017-08-19T20:18:45.313Z,4.82
2017-08-19T20:21:13.181Z,4.22
2017-08-19T20:23:41.043Z,4.70
2017-08-19T20:26:08.906Z,5.57
2017-08-19T20:28:36.772Z,4.75
2017-08-19T20:31:04.632Z,5.28
2017-08-19T20:33:32.461Z,5.10
2017-08-19T20:36:00.195Z,5.53
2017-08-19T20:38:29.658Z,4.70
2017-08-19T20:40:57.483Z,4.35
2017-08-19T20:43:25.284Z,5.22
2017-08-19T20:45:53.148Z,3.95
2017-08-19T20:48:21.012Z,4.30
2017-08-19T20:50:48.795Z,4.45
2017-08-19T20:53:16.640Z,5.28
2017-08-19T20:55:44.503Z,4.05
2017-08-19T20:58:12.365Z,4.15
2017-08-19T21:00:40.125Z,4.62
2017-08-19T21:03:07.950Z,3.85
2017-08-19T21:05:36.058Z,4.25
2017-08-19T21:08:03.921Z,4.35
2017-08-19T21:10:31.786Z,4.18
2017-08-19T21:12:59.522Z,4.60
2017-08-19T21:15:27.412Z,5.03
2017-08-19T21:17:55.274Z,4.10
2017-08-19T21:20:23.141Z,4.37
2017-08-19T21:22:51.474Z,4.93
2017-08-19T21:25:19.380Z,5.22
2017-08-19T21:27:47.250Z,4.10
2017-08-19T21:30:15.108Z,4.53
2017-08-19T21:32:42.971Z,4.90
2017-08-19T21:35:10.835Z,4.62
2017-08-19T21:37:38.698Z,3.97
2017-08-19T21:40:09.022Z,4.80
2017-08-19T21:42:36.887Z,4.35
2017-08-19T21:45:07.759Z,4.65
2017-08-19T21:47:35.684Z,4.70
2017-08-19T21:50:03.649Z,3.97
2017-08-19T21:52:31.475Z,4.95
2017-08-19T21:54:59.279Z,5.07
2017-08-19T21:57:27.139Z,4.95
2017-08-19T21:59:55.206Z,4.15
2017-08-19T22:02:23.035Z,4.68
2017-08-19T22:04:50.936Z,4.87
2017-08-19T22:07:18.658Z,5.03
2017-08-19T22:09:46.565Z,4.07
2017-08-19T22:12:14.322Z,5.00
2017-08-19T22:14:42.047Z,4.82
2017-08-19T22:17:09.946Z,3.72
2017-08-19T22:19:37.733Z,4.40
2017-08-19T22:22:06.493Z,3.55
2017-08-19T22:24:34.357Z,4.22
2017-08-19T22:27:02.325Z,4.15
2017-08-19T22:29:30.191Z,3.30
2017-08-19T22:31:57.951Z,4.12
2017-08-19T22:34:25.713Z,3.37
2017-08-19T22:36:53.574Z,3.37
2017-08-19T22:39:21.440Z,4.05
2017-08-19T22:41:49.302Z,3.25
2017-08-19T22:44:17.165Z,3.33
2017-08-19T22:46:45.029Z,3.95
2017-08-19T22:49:12.898Z,3.67
2017-08-19T22:51:40.758Z,3.87
2017-08-19T22:54:08.621Z,3.65
2017-08-19T22:56:36.488Z,3.53
2017-08-19T22:59:04.219Z,3.65
2017-08-19T23:01:32.008Z,3.10
2017-08-19T23:03:59.873Z,3.58
2017-08-19T23:06:27.736Z,3.10
2017-08-19T23:08:55.599Z,3.58
2017-08-19T23:11:23.423Z,3.50
2017-08-19T23:13:51.224Z,4.57
2017-08-19T23:16:19.089Z,3.92
2017-08-19T23:18:46.866Z,3.70
2017-08-19T23:21:14.611Z,4.30
2017-08-19T23:23:42.373Z,3.30
2017-08-19T23:26:10.126Z,3.83
2017-08-19T23:28:37.951Z,3.40
2017-08-19T23:31:05.864Z,4.43
2017-08-19T23:33:33.626Z,3.25
2017-08-19T23:36:01.349Z,3.60
2017-08-19T23:38:29.248Z,3.53
2017-08-19T23:40:57.112Z,3.95
2017-08-19T23:43:24.981Z,3.65
2017-08-19T23:45:52.841Z,3.40
2017-08-19T23:48:20.705Z,4.97
2017-08-19T23:50:48.538Z,4.62
2017-08-19T23:53:16.330Z,4.60
2017-08-19T23:55:44.194Z,3.42
2017-08-19T23:58:11.958Z,4.32
